sensor_id;sensor_type;location;lat;lon;timestamp;P1;durP1;ratioP1;P2;durP2;ratioP2
57249;SDS011;43102;52.014;-0.680;2023-01-23T00:00:01;24.90;;;14.10;;
57249;SDS011;43102;52.014;-0.680;2023-01-23T00:01:04;24.90;;;14.10;;
57249;SDS011;43102;52.014;-0.680;2023-01-23T00:02:00;24.90;;;14.10;;
57249;SDS011;43102;52.014;-0.680;2023-01-23T00:03:00;24.90;;;14.10;;
57249;SDS011;43102;52.014;-0.680;2023-01-23T00:04:01;24.90;;;14.10;;
57249;SDS011;43102;52.014;-0.680;2023-01-23T00:05:00;24.90;;;14.10;;
57249;SDS011;43102;52.014;-0.680;2023-01-23T00:06:04;24.90;;;14.10;;
57249;SDS011;43102;52.014;-0.680;2023-01-23T00:07:02;24.90;;;14.10;;
57249;SDS011;43102;52.014;-0.680;2023-01-23T00:08:00;24.90;;;14.10;;
57249;SDS011;43102;52.014;-0.680;2023-01-23T00:09:00;24.90;;;14.10;;
57249;SDS011;43102;52.014;-0.680;2023-01-23T00:10:00;24.90;;;14.10;;
57249;SDS011;43102;52.014;-0.680;2023-01-23T00:11:04;24.90;;;14.10;;
57249;SDS011;43102;52.014;-0.680;2023-01-23T00:12:00;24.90;;;14.10;;
57249;SDS011;43102;52.014;-0.680;2023-01-23T00:13:00;24.90;;;14.10;;
57249;SDS011;43102;52.014;-0.680;2023-01-23T00:14:01;24.90;;;14.10;;
57249;SDS011;43102;52.014;-0.680;2023-01-23T00:15:01;24.90;;;14.10;;
57249;SDS011;43102;52.014;-0.680;2023-01-23T00:16:11;25.00;;;14.90;;
57249;SDS011;43102;52.014;-0.680;2023-01-23T00:17:00;25.00;;;14.90;;
57249;SDS011;43102;52.014;-0.680;2023-01-23T00:18:00;25.00;;;14.90;;
57249;SDS011;43102;52.014;-0.680;2023-01-23T00:19:01;25.00;;;14.90;;
57249;SDS011;43102;52.014;-0.680;2023-01-23T00:20:00;25.00;;;14.90;;
57249;SDS011;43102;52.014;-0.680;2023-01-23T00:21:05;25.00;;;14.90;;
57249;SDS011;43102;52.014;-0.680;2023-01-23T00:22:00;25.00;;;14.90;;
57249;SDS011;43102;52.014;-0.680;2023-01-23T00:23:00;25.00;;;14.90;;
57249;SDS011;43102;52.014;-0.680;2023-01-23T00:24:01;25.00;;;14.90;;
57249;SDS011;43102;52.014;-0.680;2023-01-23T00:25:01;25.00;;;14.90;;
57249;SDS011;43102;52.014;-0.680;2023-01-23T00:26:02;25.00;;;14.90;;
57249;SDS011;43102;52.014;-0.680;2023-01-23T00:27:00;25.00;;;14.90;;
57249;SDS011;43102;52.014;-0.680;2023-01-23T00:28:01;25.00;;;14.90;;
57249;SDS011;43102;52.014;-0.680;2023-01-23T00:29:01;25.00;;;14.90;;
57249;SDS011;43102;52.014;-0.680;2023-01-23T00:30:00;25.00;;;14.90;;
57249;SDS011;43102;52.014;-0.680;2023-01-23T00:31:04;25.00;;;14.90;;
57249;SDS011;43102;52.014;-0.680;2023-01-23T00:32:00;25.00;;;14.90;;
57249;SDS011;43102;52.014;-0.680;2023-01-23T00:33:00;25.00;;;14.90;;
57249;SDS011;43102;52.014;-0.680;2023-01-23T00:34:04;25.00;;;14.90;;
57249;SDS011;43102;52.014;-0.680;2023-01-23T00:35:01;25.00;;;14.90;;
57249;SDS011;43102;52.014;-0.680;2023-01-23T00:36:01;25.00;;;14.90;;
57249;SDS011;43102;52.014;-0.680;2023-01-23T00:37:00;25.00;;;14.90;;
57249;SDS011;43102;52.014;-0.680;2023-01-23T00:38:00;25.00;;;14.90;;
57249;SDS011;43102;52.014;-0.680;2023-01-23T00:39:01;25.00;;;14.90;;
57249;SDS011;43102;52.014;-0.680;2023-01-23T00:40:00;25.00;;;14.90;;
57249;SDS011;43102;52.014;-0.680;2023-01-23T00:41:01;25.00;;;14.90;;
57249;SDS011;43102;52.014;-0.680;2023-01-23T00:42:00;25.00;;;14.90;;
57249;SDS011;43102;52.014;-0.680;2023-01-23T00:43:00;25.00;;;14.90;;
57249;SDS011;43102;52.014;-0.680;2023-01-23T00:44:01;25.00;;;14.90;;
57249;SDS011;43102;52.014;-0.680;2023-01-23T00:45:00;25.00;;;14.90;;
57249;SDS011;43102;52.014;-0.680;2023-01-23T00:46:00;26.10;;;14.50;;
57249;SDS011;43102;52.014;-0.680;2023-01-23T00:47:00;26.10;;;14.50;;
57249;SDS011;43102;52.014;-0.680;2023-01-23T00:48:00;26.10;;;14.50;;
57249;SDS011;43102;52.014;-0.680;2023-01-23T00:49:00;26.10;;;14.50;;
57249;SDS011;43102;52.014;-0.680;2023-01-23T00:50:00;26.10;;;14.50;;
57249;SDS011;43102;52.014;-0.680;2023-01-23T00:51:00;26.10;;;14.50;;
57249;SDS011;43102;52.014;-0.680;2023-01-23T00:52:00;26.10;;;14.50;;
57249;SDS011;43102;52.014;-0.680;2023-01-23T00:53:00;26.10;;;14.50;;
57249;SDS011;43102;52.014;-0.680;2023-01-23T00:54:01;26.10;;;14.50;;
57249;SDS011;43102;52.014;-0.680;2023-01-23T00:55:00;26.10;;;14.50;;
57249;SDS011;43102;52.014;-0.680;2023-01-23T00:56:00;26.10;;;14.50;;
57249;SDS011;43102;52.014;-0.680;2023-01-23T00:57:00;26.10;;;14.50;;
57249;SDS011;43102;52.014;-0.680;2023-01-23T00:58:00;26.10;;;14.50;;
57249;SDS011;43102;52.014;-0.680;2023-01-23T00:59:00;26.10;;;14.50;;
57249;SDS011;43102;52.014;-0.680;2023-01-23T01:00:00;26.10;;;14.50;;
57249;SDS011;43102;52.014;-0.680;2023-01-23T01:01:00;26.10;;;14.50;;
57249;SDS011;43102;52.014;-0.680;2023-01-23T01:02:01;26.10;;;14.50;;
57249;SDS011;43102;52.014;-0.680;2023-01-23T01:03:00;26.10;;;14.50;;
57249;SDS011;43102;52.014;-0.680;2023-01-23T01:04:00;26.10;;;14.50;;
57249;SDS011;43102;52.014;-0.680;2023-01-23T01:05:00;26.10;;;14.50;;
57249;SDS011;43102;52.014;-0.680;2023-01-23T01:06:00;26.10;;;14.50;;
57249;SDS011;43102;52.014;-0.680;2023-01-23T01:07:00;26.10;;;14.50;;
57249;SDS011;43102;52.014;-0.680;2023-01-23T01:08:00;26.10;;;14.50;;
57249;SDS011;43102;52.014;-0.680;2023-01-23T01:09:01;26.10;;;14.50;;
57249;SDS011;43102;52.014;-0.680;2023-01-23T01:10:01;26.10;;;14.50;;
57249;SDS011;43102;52.014;-0.680;2023-01-23T01:11:00;26.10;;;14.50;;
57249;SDS011;43102;52.014;-0.680;2023-01-23T01:12:00;26.10;;;14.50;;
57249;SDS011;43102;52.014;-0.680;2023-01-23T01:13:02;26.10;;;14.50;;
57249;SDS011;43102;52.014;-0.680;2023-01-23T01:14:00;26.10;;;14.50;;
57249;SDS011;43102;52.014;-0.680;2023-01-23T01:15:01;26.10;;;14.50;;
57249;SDS011;43102;52.014;-0.680;2023-01-23T01:16:01;23.00;;;11.40;;
57249;SDS011;43102;52.014;-0.680;2023-01-23T01:17:00;23.00;;;11.40;;
57249;SDS011;43102;52.014;-0.680;2023-01-23T01:18:01;23.00;;;11.40;;
57249;SDS011;43102;52.014;-0.680;2023-01-23T01:19:00;23.00;;;11.40;;
57249;SDS011;43102;52.014;-0.680;2023-01-23T01:20:01;23.00;;;11.40;;
57249;SDS011;43102;52.014;-0.680;2023-01-23T01:21:04;23.00;;;11.40;;
57249;SDS011;43102;52.014;-0.680;2023-01-23T01:22:00;23.00;;;11.40;;
57249;SDS011;43102;52.014;-0.680;2023-01-23T01:23:00;23.00;;;11.40;;
57249;SDS011;43102;52.014;-0.680;2023-01-23T01:24:00;23.00;;;11.40;;
57249;SDS011;43102;52.014;-0.680;2023-01-23T01:25:00;23.00;;;11.40;;
57249;SDS011;43102;52.014;-0.680;2023-01-23T01:26:01;23.00;;;11.40;;
57249;SDS011;43102;52.014;-0.680;2023-01-23T01:27:00;23.00;;;11.40;;
57249;SDS011;43102;52.014;-0.680;2023-01-23T01:28:00;23.00;;;11.40;;
57249;SDS011;43102;52.014;-0.680;2023-01-23T01:29:01;23.00;;;11.40;;
57249;SDS011;43102;52.014;-0.680;2023-01-23T01:30:01;23.00;;;11.40;;
57249;SDS011;43102;52.014;-0.680;2023-01-23T01:31:07;23.00;;;11.40;;
57249;SDS011;43102;52.014;-0.680;2023-01-23T01:32:00;23.00;;;11.40;;
57249;SDS011;43102;52.014;-0.680;2023-01-23T01:33:00;23.00;;;11.40;;
57249;SDS011;43102;52.014;-0.680;2023-01-23T01:34:00;23.00;;;11.40;;
57249;SDS011;43102;52.014;-0.680;2023-01-23T01:35:00;23.00;;;11.40;;
57249;SDS011;43102;52.014;-0.680;2023-01-23T01:36:00;23.00;;;11.40;;
57249;SDS011;43102;52.014;-0.680;2023-01-23T01:37:00;23.00;;;11.40;;
57249;SDS011;43102;52.014;-0.680;2023-01-23T01:38:00;23.00;;;11.40;;
57249;SDS011;43102;52.014;-0.680;2023-01-23T01:39:00;23.00;;;11.40;;
57249;SDS011;43102;52.014;-0.680;2023-01-23T01:40:01;23.00;;;11.40;;
57249;SDS011;43102;52.014;-0.680;2023-01-23T01:41:00;23.00;;;11.40;;
57249;SDS011;43102;52.014;-0.680;2023-01-23T01:42:00;23.00;;;11.40;;
57249;SDS011;43102;52.014;-0.680;2023-01-23T01:43:04;23.00;;;11.40;;
57249;SDS011;43102;52.014;-0.680;2023-01-23T01:44:01;23.00;;;11.40;;
57249;SDS011;43102;52.014;-0.680;2023-01-23T01:45:01;23.00;;;11.40;;
57249;SDS011;43102;52.014;-0.680;2023-01-23T01:46:26;17.30;;;11.50;;
57249;SDS011;43102;52.014;-0.680;2023-01-23T01:47:00;17.30;;;11.50;;
57249;SDS011;43102;52.014;-0.680;2023-01-23T01:48:00;17.30;;;11.50;;
57249;SDS011;43102;52.014;-0.680;2023-01-23T01:49:13;17.30;;;11.50;;
57249;SDS011;43102;52.014;-0.680;2023-01-23T01:50:03;17.30;;;11.50;;
57249;SDS011;43102;52.014;-0.680;2023-01-23T01:51:03;17.30;;;11.50;;
57249;SDS011;43102;52.014;-0.680;2023-01-23T01:52:04;17.30;;;11.50;;
57249;SDS011;43102;52.014;-0.680;2023-01-23T01:53:00;17.30;;;11.50;;
57249;SDS011;43102;52.014;-0.680;2023-01-23T01:54:04;17.30;;;11.50;;
57249;SDS011;43102;52.014;-0.680;2023-01-23T01:55:03;17.30;;;11.50;;
57249;SDS011;43102;52.014;-0.680;2023-01-23T01:56:01;17.30;;;11.50;;
57249;SDS011;43102;52.014;-0.680;2023-01-23T01:57:03;17.30;;;11.50;;
57249;SDS011;43102;52.014;-0.680;2023-01-23T01:58:00;17.30;;;11.50;;
57249;SDS011;43102;52.014;-0.680;2023-01-23T01:59:01;17.30;;;11.50;;
57249;SDS011;43102;52.014;-0.680;2023-01-23T02:00:03;17.30;;;11.50;;
57249;SDS011;43102;52.014;-0.680;2023-01-23T02:01:00;17.30;;;11.50;;
57249;SDS011;43102;52.014;-0.680;2023-01-23T02:02:05;17.30;;;11.50;;
57249;SDS011;43102;52.014;-0.680;2023-01-23T02:03:02;17.30;;;11.50;;
57249;SDS011;43102;52.014;-0.680;2023-01-23T02:04:01;17.30;;;11.50;;
57249;SDS011;43102;52.014;-0.680;2023-01-23T02:05:04;17.30;;;11.50;;
57249;SDS011;43102;52.014;-0.680;2023-01-23T02:06:01;17.30;;;11.50;;
57249;SDS011;43102;52.014;-0.680;2023-01-23T02:07:04;17.30;;;11.50;;
57249;SDS011;43102;52.014;-0.680;2023-01-23T02:08:06;17.30;;;11.50;;
57249;SDS011;43102;52.014;-0.680;2023-01-23T02:09:09;17.30;;;11.50;;
57249;SDS011;43102;52.014;-0.680;2023-01-23T02:10:03;17.30;;;11.50;;
57249;SDS011;43102;52.014;-0.680;2023-01-23T02:11:02;17.30;;;11.50;;
57249;SDS011;43102;52.014;-0.680;2023-01-23T02:12:01;17.30;;;11.50;;
57249;SDS011;43102;52.014;-0.680;2023-01-23T02:13:19;17.30;;;11.50;;
57249;SDS011;43102;52.014;-0.680;2023-01-23T02:14:00;17.30;;;11.50;;
57249;SDS011;43102;52.014;-0.680;2023-01-23T02:15:02;17.30;;;11.50;;
57249;SDS011;43102;52.014;-0.680;2023-01-23T02:16:04;17.40;;;11.60;;
57249;SDS011;43102;52.014;-0.680;2023-01-23T02:17:02;17.40;;;11.60;;
57249;SDS011;43102;52.014;-0.680;2023-01-23T02:18:01;17.40;;;11.60;;
57249;SDS011;43102;52.014;-0.680;2023-01-23T02:19:04;17.40;;;11.60;;
57249;SDS011;43102;52.014;-0.680;2023-01-23T02:20:14;17.40;;;11.60;;
57249;SDS011;43102;52.014;-0.680;2023-01-23T02:21:04;17.40;;;11.60;;
57249;SDS011;43102;52.014;-0.680;2023-01-23T02:22:11;17.40;;;11.60;;
57249;SDS011;43102;52.014;-0.680;2023-01-23T02:24:15;17.40;;;11.60;;
57249;SDS011;43102;52.014;-0.680;2023-01-23T02:26:03;17.40;;;11.60;;
57249;SDS011;43102;52.014;-0.680;2023-01-23T02:27:02;17.40;;;11.60;;
57249;SDS011;43102;52.014;-0.680;2023-01-23T02:28:01;17.40;;;11.60;;
57249;SDS011;43102;52.014;-0.680;2023-01-23T02:29:01;17.40;;;11.60;;
57249;SDS011;43102;52.014;-0.680;2023-01-23T02:30:01;17.40;;;11.60;;
57249;SDS011;43102;52.014;-0.680;2023-01-23T02:31:00;17.40;;;11.60;;
57249;SDS011;43102;52.014;-0.680;2023-01-23T02:32:00;17.40;;;11.60;;
57249;SDS011;43102;52.014;-0.680;2023-01-23T02:33:08;17.40;;;11.60;;
57249;SDS011;43102;52.014;-0.680;2023-01-23T02:34:00;17.40;;;11.60;;
57249;SDS011;43102;52.014;-0.680;2023-01-23T02:35:07;17.40;;;11.60;;
57249;SDS011;43102;52.014;-0.680;2023-01-23T02:36:02;17.40;;;11.60;;
57249;SDS011;43102;52.014;-0.680;2023-01-23T02:37:01;17.40;;;11.60;;
57249;SDS011;43102;52.014;-0.680;2023-01-23T02:38:04;17.40;;;11.60;;
57249;SDS011;43102;52.014;-0.680;2023-01-23T02:39:05;17.40;;;11.60;;
57249;SDS011;43102;52.014;-0.680;2023-01-23T02:40:02;17.40;;;11.60;;
57249;SDS011;43102;52.014;-0.680;2023-01-23T02:41:03;17.40;;;11.60;;
57249;SDS011;43102;52.014;-0.680;2023-01-23T02:42:01;17.40;;;11.60;;
57249;SDS011;43102;52.014;-0.680;2023-01-23T02:43:02;17.40;;;11.60;;
57249;SDS011;43102;52.014;-0.680;2023-01-23T02:44:10;17.40;;;11.60;;
57249;SDS011;43102;52.014;-0.680;2023-01-23T02:45:00;17.40;;;11.60;;
57249;SDS011;43102;52.014;-0.680;2023-01-23T02:46:02;17.40;;;11.60;;
57249;SDS011;43102;52.014;-0.680;2023-01-23T02:47:04;18.80;;;10.80;;
57249;SDS011;43102;52.014;-0.680;2023-01-23T02:48:00;18.80;;;10.80;;
57249;SDS011;43102;52.014;-0.680;2023-01-23T02:49:01;18.80;;;10.80;;
57249;SDS011;43102;52.014;-0.680;2023-01-23T02:50:00;18.80;;;10.80;;
57249;SDS011;43102;52.014;-0.680;2023-01-23T02:51:00;18.80;;;10.80;;
57249;SDS011;43102;52.014;-0.680;2023-01-23T02:52:00;18.80;;;10.80;;
57249;SDS011;43102;52.014;-0.680;2023-01-23T02:53:00;18.80;;;10.80;;
57249;SDS011;43102;52.014;-0.680;2023-01-23T02:54:00;18.80;;;10.80;;
57249;SDS011;43102;52.014;-0.680;2023-01-23T02:55:00;18.80;;;10.80;;
57249;SDS011;43102;52.014;-0.680;2023-01-23T02:56:00;18.80;;;10.80;;
57249;SDS011;43102;52.014;-0.680;2023-01-23T02:57:01;18.80;;;10.80;;
57249;SDS011;43102;52.014;-0.680;2023-01-23T02:58:10;18.80;;;10.80;;
57249;SDS011;43102;52.014;-0.680;2023-01-23T02:59:10;18.80;;;10.80;;
57249;SDS011;43102;52.014;-0.680;2023-01-23T03:00:11;18.80;;;10.80;;
57249;SDS011;43102;52.014;-0.680;2023-01-23T03:01:01;18.80;;;10.80;;
57249;SDS011;43102;52.014;-0.680;2023-01-23T03:02:00;18.80;;;10.80;;
57249;SDS011;43102;52.014;-0.680;2023-01-23T03:03:01;18.80;;;10.80;;
57249;SDS011;43102;52.014;-0.680;2023-01-23T03:04:03;18.80;;;10.80;;
57249;SDS011;43102;52.014;-0.680;2023-01-23T03:05:00;18.80;;;10.80;;
57249;SDS011;43102;52.014;-0.680;2023-01-23T03:06:02;18.80;;;10.80;;
57249;SDS011;43102;52.014;-0.680;2023-01-23T03:07:00;18.80;;;10.80;;
57249;SDS011;43102;52.014;-0.680;2023-01-23T03:08:00;18.80;;;10.80;;
57249;SDS011;43102;52.014;-0.680;2023-01-23T03:09:02;18.80;;;10.80;;
57249;SDS011;43102;52.014;-0.680;2023-01-23T03:10:01;18.80;;;10.80;;
57249;SDS011;43102;52.014;-0.680;2023-01-23T03:11:01;18.80;;;10.80;;
57249;SDS011;43102;52.014;-0.680;2023-01-23T03:12:00;18.80;;;10.80;;
57249;SDS011;43102;52.014;-0.680;2023-01-23T03:13:02;18.80;;;10.80;;
57249;SDS011;43102;52.014;-0.680;2023-01-23T03:14:00;18.80;;;10.80;;
57249;SDS011;43102;52.014;-0.680;2023-01-23T03:15:01;18.80;;;10.80;;
57249;SDS011;43102;52.014;-0.680;2023-01-23T03:16:01;18.80;;;10.80;;
57249;SDS011;43102;52.014;-0.680;2023-01-23T03:17:00;14.90;;;10.00;;
57249;SDS011;43102;52.014;-0.680;2023-01-23T03:18:00;14.90;;;10.00;;
57249;SDS011;43102;52.014;-0.680;2023-01-23T03:19:04;14.90;;;10.00;;
57249;SDS011;43102;52.014;-0.680;2023-01-23T03:20:02;14.90;;;10.00;;
57249;SDS011;43102;52.014;-0.680;2023-01-23T03:21:02;14.90;;;10.00;;
57249;SDS011;43102;52.014;-0.680;2023-01-23T03:22:00;14.90;;;10.00;;
57249;SDS011;43102;52.014;-0.680;2023-01-23T03:23:00;14.90;;;10.00;;
57249;SDS011;43102;52.014;-0.680;2023-01-23T03:24:03;14.90;;;10.00;;
57249;SDS011;43102;52.014;-0.680;2023-01-23T03:25:00;14.90;;;10.00;;
57249;SDS011;43102;52.014;-0.680;2023-01-23T03:26:00;14.90;;;10.00;;
57249;SDS011;43102;52.014;-0.680;2023-01-23T03:27:00;14.90;;;10.00;;
57249;SDS011;43102;52.014;-0.680;2023-01-23T03:28:00;14.90;;;10.00;;
57249;SDS011;43102;52.014;-0.680;2023-01-23T03:29:14;14.90;;;10.00;;
57249;SDS011;43102;52.014;-0.680;2023-01-23T03:30:11;14.90;;;10.00;;
57249;SDS011;43102;52.014;-0.680;2023-01-23T03:31:00;14.90;;;10.00;;
57249;SDS011;43102;52.014;-0.680;2023-01-23T03:32:01;14.90;;;10.00;;
57249;SDS011;43102;52.014;-0.680;2023-01-23T03:33:00;14.90;;;10.00;;
57249;SDS011;43102;52.014;-0.680;2023-01-23T03:34:00;14.90;;;10.00;;
57249;SDS011;43102;52.014;-0.680;2023-01-23T03:35:00;14.90;;;10.00;;
57249;SDS011;43102;52.014;-0.680;2023-01-23T03:36:00;14.90;;;10.00;;
57249;SDS011;43102;52.014;-0.680;2023-01-23T03:37:02;14.90;;;10.00;;
57249;SDS011;43102;52.014;-0.680;2023-01-23T03:38:00;14.90;;;10.00;;
57249;SDS011;43102;52.014;-0.680;2023-01-23T03:39:10;14.90;;;10.00;;
57249;SDS011;43102;52.014;-0.680;2023-01-23T03:40:14;14.90;;;10.00;;
57249;SDS011;43102;52.014;-0.680;2023-01-23T03:41:10;14.90;;;10.00;;
57249;SDS011;43102;52.014;-0.680;2023-01-23T03:42:00;14.90;;;10.00;;
57249;SDS011;43102;52.014;-0.680;2023-01-23T03:43:00;14.90;;;10.00;;
57249;SDS011;43102;52.014;-0.680;2023-01-23T03:44:00;14.90;;;10.00;;
57249;SDS011;43102;52.014;-0.680;2023-01-23T03:45:01;14.90;;;10.00;;
57249;SDS011;43102;52.014;-0.680;2023-01-23T03:46:00;14.90;;;10.00;;
57249;SDS011;43102;52.014;-0.680;2023-01-23T03:47:00;17.30;;;9.70;;
57249;SDS011;43102;52.014;-0.680;2023-01-23T03:48:00;17.30;;;9.70;;
57249;SDS011;43102;52.014;-0.680;2023-01-23T03:49:00;17.30;;;9.70;;
57249;SDS011;43102;52.014;-0.680;2023-01-23T03:50:00;17.30;;;9.70;;
57249;SDS011;43102;52.014;-0.680;2023-01-23T03:51:00;17.30;;;9.70;;
57249;SDS011;43102;52.014;-0.680;2023-01-23T03:52:01;17.30;;;9.70;;
57249;SDS011;43102;52.014;-0.680;2023-01-23T03:53:00;17.30;;;9.70;;
57249;SDS011;43102;52.014;-0.680;2023-01-23T03:54:00;17.30;;;9.70;;
57249;SDS011;43102;52.014;-0.680;2023-01-23T03:55:00;17.30;;;9.70;;
57249;SDS011;43102;52.014;-0.680;2023-01-23T03:56:01;17.30;;;9.70;;
57249;SDS011;43102;52.014;-0.680;2023-01-23T03:57:00;17.30;;;9.70;;
57249;SDS011;43102;52.014;-0.680;2023-01-23T03:58:00;17.30;;;9.70;;
57249;SDS011;43102;52.014;-0.680;2023-01-23T03:59:00;17.30;;;9.70;;
57249;SDS011;43102;52.014;-0.680;2023-01-23T04:00:00;17.30;;;9.70;;
57249;SDS011;43102;52.014;-0.680;2023-01-23T04:01:05;17.30;;;9.70;;
57249;SDS011;43102;52.014;-0.680;2023-01-23T04:02:03;17.30;;;9.70;;
57249;SDS011;43102;52.014;-0.680;2023-01-23T04:03:00;17.30;;;9.70;;
57249;SDS011;43102;52.014;-0.680;2023-01-23T04:04:00;17.30;;;9.70;;
57249;SDS011;43102;52.014;-0.680;2023-01-23T04:05:00;17.30;;;9.70;;
57249;SDS011;43102;52.014;-0.680;2023-01-23T04:06:01;17.30;;;9.70;;
57249;SDS011;43102;52.014;-0.680;2023-01-23T04:07:01;17.30;;;9.70;;
57249;SDS011;43102;52.014;-0.680;2023-01-23T04:08:01;17.30;;;9.70;;
57249;SDS011;43102;52.014;-0.680;2023-01-23T04:09:00;17.30;;;9.70;;
57249;SDS011;43102;52.014;-0.680;2023-01-23T04:10:00;17.30;;;9.70;;
57249;SDS011;43102;52.014;-0.680;2023-01-23T04:11:04;17.30;;;9.70;;
57249;SDS011;43102;52.014;-0.680;2023-01-23T04:12:00;17.30;;;9.70;;
57249;SDS011;43102;52.014;-0.680;2023-01-23T04:13:01;17.30;;;9.70;;
57249;SDS011;43102;52.014;-0.680;2023-01-23T04:14:00;17.30;;;9.70;;
57249;SDS011;43102;52.014;-0.680;2023-01-23T04:15:00;17.30;;;9.70;;
57249;SDS011;43102;52.014;-0.680;2023-01-23T04:16:01;17.30;;;9.70;;
57249;SDS011;43102;52.014;-0.680;2023-01-23T04:17:00;14.60;;;9.50;;
57249;SDS011;43102;52.014;-0.680;2023-01-23T04:18:00;14.60;;;9.50;;
57249;SDS011;43102;52.014;-0.680;2023-01-23T04:19:00;14.60;;;9.50;;
57249;SDS011;43102;52.014;-0.680;2023-01-23T04:20:00;14.60;;;9.50;;
57249;SDS011;43102;52.014;-0.680;2023-01-23T04:21:00;14.60;;;9.50;;
57249;SDS011;43102;52.014;-0.680;2023-01-23T04:22:00;14.60;;;9.50;;
57249;SDS011;43102;52.014;-0.680;2023-01-23T04:23:00;14.60;;;9.50;;
57249;SDS011;43102;52.014;-0.680;2023-01-23T04:24:00;14.60;;;9.50;;
57249;SDS011;43102;52.014;-0.680;2023-01-23T04:25:00;14.60;;;9.50;;
57249;SDS011;43102;52.014;-0.680;2023-01-23T04:26:00;14.60;;;9.50;;
57249;SDS011;43102;52.014;-0.680;2023-01-23T04:27:00;14.60;;;9.50;;
57249;SDS011;43102;52.014;-0.680;2023-01-23T04:28:00;14.60;;;9.50;;
57249;SDS011;43102;52.014;-0.680;2023-01-23T04:29:00;14.60;;;9.50;;
57249;SDS011;43102;52.014;-0.680;2023-01-23T04:30:00;14.60;;;9.50;;
57249;SDS011;43102;52.014;-0.680;2023-01-23T04:31:01;14.60;;;9.50;;
57249;SDS011;43102;52.014;-0.680;2023-01-23T04:32:01;14.60;;;9.50;;
57249;SDS011;43102;52.014;-0.680;2023-01-23T04:33:01;14.60;;;9.50;;
57249;SDS011;43102;52.014;-0.680;2023-01-23T04:34:00;14.60;;;9.50;;
57249;SDS011;43102;52.014;-0.680;2023-01-23T04:35:00;14.60;;;9.50;;
57249;SDS011;43102;52.014;-0.680;2023-01-23T04:36:03;14.60;;;9.50;;
57249;SDS011;43102;52.014;-0.680;2023-01-23T04:37:00;14.60;;;9.50;;
57249;SDS011;43102;52.014;-0.680;2023-01-23T04:38:00;14.60;;;9.50;;
57249;SDS011;43102;52.014;-0.680;2023-01-23T04:39:02;14.60;;;9.50;;
57249;SDS011;43102;52.014;-0.680;2023-01-23T04:40:00;14.60;;;9.50;;
57249;SDS011;43102;52.014;-0.680;2023-01-23T04:41:01;14.60;;;9.50;;
57249;SDS011;43102;52.014;-0.680;2023-01-23T04:42:00;14.60;;;9.50;;
57249;SDS011;43102;52.014;-0.680;2023-01-23T04:43:00;14.60;;;9.50;;
57249;SDS011;43102;52.014;-0.680;2023-01-23T04:44:10;14.60;;;9.50;;
57249;SDS011;43102;52.014;-0.680;2023-01-23T04:45:00;14.60;;;9.50;;
57249;SDS011;43102;52.014;-0.680;2023-01-23T04:46:01;14.60;;;9.50;;
57249;SDS011;43102;52.014;-0.680;2023-01-23T04:47:00;17.30;;;10.20;;
57249;SDS011;43102;52.014;-0.680;2023-01-23T04:48:00;17.30;;;10.20;;
57249;SDS011;43102;52.014;-0.680;2023-01-23T04:49:00;17.30;;;10.20;;
57249;SDS011;43102;52.014;-0.680;2023-01-23T04:50:00;17.30;;;10.20;;
57249;SDS011;43102;52.014;-0.680;2023-01-23T04:51:01;17.30;;;10.20;;
57249;SDS011;43102;52.014;-0.680;2023-01-23T04:52:00;17.30;;;10.20;;
57249;SDS011;43102;52.014;-0.680;2023-01-23T04:53:01;17.30;;;10.20;;
57249;SDS011;43102;52.014;-0.680;2023-01-23T04:54:00;17.30;;;10.20;;
57249;SDS011;43102;52.014;-0.680;2023-01-23T04:55:00;17.30;;;10.20;;
57249;SDS011;43102;52.014;-0.680;2023-01-23T04:56:01;17.30;;;10.20;;
57249;SDS011;43102;52.014;-0.680;2023-01-23T04:57:00;17.30;;;10.20;;
57249;SDS011;43102;52.014;-0.680;2023-01-23T04:58:01;17.30;;;10.20;;
57249;SDS011;43102;52.014;-0.680;2023-01-23T04:59:00;17.30;;;10.20;;
57249;SDS011;43102;52.014;-0.680;2023-01-23T05:00:01;17.30;;;10.20;;
57249;SDS011;43102;52.014;-0.680;2023-01-23T05:01:01;17.30;;;10.20;;
57249;SDS011;43102;52.014;-0.680;2023-01-23T05:02:01;17.30;;;10.20;;
57249;SDS011;43102;52.014;-0.680;2023-01-23T05:03:02;17.30;;;10.20;;
57249;SDS011;43102;52.014;-0.680;2023-01-23T05:04:00;17.30;;;10.20;;
57249;SDS011;43102;52.014;-0.680;2023-01-23T05:05:01;17.30;;;10.20;;
57249;SDS011;43102;52.014;-0.680;2023-01-23T05:06:00;17.30;;;10.20;;
57249;SDS011;43102;52.014;-0.680;2023-01-23T05:07:00;17.30;;;10.20;;
57249;SDS011;43102;52.014;-0.680;2023-01-23T05:08:00;17.30;;;10.20;;
57249;SDS011;43102;52.014;-0.680;2023-01-23T05:09:00;17.30;;;10.20;;
57249;SDS011;43102;52.014;-0.680;2023-01-23T05:10:00;17.30;;;10.20;;
57249;SDS011;43102;52.014;-0.680;2023-01-23T05:11:00;17.30;;;10.20;;
57249;SDS011;43102;52.014;-0.680;2023-01-23T05:12:00;17.30;;;10.20;;
57249;SDS011;43102;52.014;-0.680;2023-01-23T05:13:00;17.30;;;10.20;;
57249;SDS011;43102;52.014;-0.680;2023-01-23T05:14:00;17.30;;;10.20;;
57249;SDS011;43102;52.014;-0.680;2023-01-23T05:15:01;17.30;;;10.20;;
57249;SDS011;43102;52.014;-0.680;2023-01-23T05:16:00;17.30;;;10.20;;
57249;SDS011;43102;52.014;-0.680;2023-01-23T05:17:00;17.50;;;9.00;;
57249;SDS011;43102;52.014;-0.680;2023-01-23T05:18:00;17.50;;;9.00;;
57249;SDS011;43102;52.014;-0.680;2023-01-23T05:19:00;17.50;;;9.00;;
57249;SDS011;43102;52.014;-0.680;2023-01-23T05:20:00;17.50;;;9.00;;
57249;SDS011;43102;52.014;-0.680;2023-01-23T05:21:00;17.50;;;9.00;;
57249;SDS011;43102;52.014;-0.680;2023-01-23T05:22:00;17.50;;;9.00;;
57249;SDS011;43102;52.014;-0.680;2023-01-23T05:23:00;17.50;;;9.00;;
57249;SDS011;43102;52.014;-0.680;2023-01-23T05:24:00;17.50;;;9.00;;
57249;SDS011;43102;52.014;-0.680;2023-01-23T05:25:01;17.50;;;9.00;;
57249;SDS011;43102;52.014;-0.680;2023-01-23T05:26:00;17.50;;;9.00;;
57249;SDS011;43102;52.014;-0.680;2023-01-23T05:27:00;17.50;;;9.00;;
57249;SDS011;43102;52.014;-0.680;2023-01-23T05:28:00;17.50;;;9.00;;
57249;SDS011;43102;52.014;-0.680;2023-01-23T05:29:00;17.50;;;9.00;;
57249;SDS011;43102;52.014;-0.680;2023-01-23T05:30:00;17.50;;;9.00;;
57249;SDS011;43102;52.014;-0.680;2023-01-23T05:31:00;17.50;;;9.00;;
57249;SDS011;43102;52.014;-0.680;2023-01-23T05:32:00;17.50;;;9.00;;
57249;SDS011;43102;52.014;-0.680;2023-01-23T05:33:00;17.50;;;9.00;;
57249;SDS011;43102;52.014;-0.680;2023-01-23T05:34:00;17.50;;;9.00;;
57249;SDS011;43102;52.014;-0.680;2023-01-23T05:35:00;17.50;;;9.00;;
57249;SDS011;43102;52.014;-0.680;2023-01-23T05:36:01;17.50;;;9.00;;
57249;SDS011;43102;52.014;-0.680;2023-01-23T05:37:00;17.50;;;9.00;;
57249;SDS011;43102;52.014;-0.680;2023-01-23T05:38:00;17.50;;;9.00;;
57249;SDS011;43102;52.014;-0.680;2023-01-23T05:39:00;17.50;;;9.00;;
57249;SDS011;43102;52.014;-0.680;2023-01-23T05:40:00;17.50;;;9.00;;
57249;SDS011;43102;52.014;-0.680;2023-01-23T05:41:00;17.50;;;9.00;;
57249;SDS011;43102;52.014;-0.680;2023-01-23T05:42:00;17.50;;;9.00;;
57249;SDS011;43102;52.014;-0.680;2023-01-23T05:43:00;17.50;;;9.00;;
57249;SDS011;43102;52.014;-0.680;2023-01-23T05:44:00;17.50;;;9.00;;
57249;SDS011;43102;52.014;-0.680;2023-01-23T05:45:00;17.50;;;9.00;;
57249;SDS011;43102;52.014;-0.680;2023-01-23T05:46:01;17.50;;;9.00;;
57249;SDS011;43102;52.014;-0.680;2023-01-23T05:47:00;16.60;;;10.50;;
57249;SDS011;43102;52.014;-0.680;2023-01-23T05:48:00;16.60;;;10.50;;